Aka — WDH3174 — position and weather

sailwx.info

Track history (hours):
 
Tides and Currents Weather Stations Pressure Air Temp Water Temp Dewpoint Dewpoint Depression Visibility Wind Speed Wind Dir Waves Ship Positions

Aka

Owner: Patterson, Robert S, Tucson, AZ. More information available from US FCC via Universal Licensing System and Coast Guard Vessel Documentation Center.

Last reported at 2017-Dec-20 15:54 UTC. Time now 2018-Jan-20 07:07 UTC.
Position N 25°35' W 080°08'.
Warning: this ship's position is 30 days out of date.

Length 14 m.

Type: Sailing vessel. MMSI: 367605040.

Date/timePositionNaut miles runAvg speedWind from/ knotsBaromVisibWave heightAir tempDewpointWater temp
2017-Dec-20 15:54N 25°35' W 080°08'2 5.5
2017-Dec-20 15:27N 25°37' W 080°08'2 4.7
2017-Dec-20 15:00N 25°39' W 080°09'2 2.9
2017-Dec-20 14:25N 25°40' W 080°10'0 0.0
2017-Dec-20 13:58N 25°40' W 080°10'0 0.0
2017-Dec-20 02:25N 25°40' W 080°10'0 0.0
2017-Dec-20 01:58N 25°40' W 080°10'1 3.0
2017-Dec-20 01:30N 25°39' W 080°09'1 2.9
2017-Dec-20 01:00N 25°40' W 080°07'2 4.6
2017-Dec-20 00:30N 25°42' W 080°07'2 4.6
2017-Dec-20 00:00N 25°44' W 080°06'2 4.4
2017-Dec-19 23:30N 25°46' W 080°05'2 4.7
2017-Dec-19 23:00N 25°48' W 080°06'3 5.3
2017-Dec-19 22:28N 25°51' W 080°05'1 1.7
2017-Dec-19 22:00N 25°52' W 080°06'3 5.4
2017-Dec-19 21:30N 25°55' W 080°05'2 4.8
2017-Dec-19 21:00N 25°57' W 080°05'2 4.1
2017-Dec-19 20:30N 25°59' W 080°04'2 3.9
2017-Dec-19 20:00N 26°01' W 080°04'2 3.8
2017-Dec-19 19:30N 26°03' W 080°04'2 4.3
2017-Dec-19 19:00N 26°05' W 080°04'1 1.0
2017-Dec-19 18:26N 26°05' W 080°04'2 3.8
2017-Dec-19 17:59N 26°07' W 080°04'3 7.0
2017-Dec-19 17:30N 26°10' W 080°04'5 7.3
2017-Dec-19 16:52N 26°15' W 080°04'23 6.3
2017-Dec-19 13:11N 26°38' W 080°01'1 6.0
2017-Dec-19 12:59N 26°39' W 080°01'3 5.4
2017-Dec-19 12:30N 26°41' W 079°60'2 4.9
2017-Dec-19 12:00N 26°44' W 079°60'3 5.2
2017-Dec-19 11:30N 26°46' W 080°01'2 3.0
2017-Dec-19 11:00N 26°46' W 080°03'0 0.6
2017-Dec-19 10:30N 26°46' W 080°03'8 0.5
2017-Dec-18 17:28N 26°54' W 080°05'3 5.6
2017-Dec-18 17:00N 26°56' W 080°05'2 4.3
2017-Dec-18 16:30N 26°58' W 080°05'  
Track history (hours):
 
Tides and Currents Weather Stations Pressure Air Temp Water Temp Dewpoint Dewpoint Depression Visibility Wind Speed Wind Dir Waves Ship Positions

Aka

Owner: Patterson, Robert S, Tucson, AZ. More information available from US FCC via Universal Licensing System and Coast Guard Vessel Documentation Center.

Last reported at 2017-Dec-20 15:54 UTC. Time now 2018-Jan-20 07:07 UTC.
Position N 25°35' W 080°08'.
Warning: this ship's position is 30 days out of date.

Length 14 m.

Type: Sailing vessel. MMSI: 367605040.

Date/timePositionNaut miles runAvg speedWind from/ knotsBaromVisibWave heightAir tempDewpointWater temp
2017-Dec-20 15:54N 25°35' W 080°08'2 5.5
2017-Dec-20 15:27N 25°37' W 080°08'2 4.7
2017-Dec-20 15:00N 25°39' W 080°09'2 2.9
2017-Dec-20 14:25N 25°40' W 080°10'0 0.0
2017-Dec-20 13:58N 25°40' W 080°10'0 0.0
2017-Dec-20 02:25N 25°40' W 080°10'0 0.0
2017-Dec-20 01:58N 25°40' W 080°10'1 3.0
2017-Dec-20 01:30N 25°39' W 080°09'1 2.9
2017-Dec-20 01:00N 25°40' W 080°07'2 4.6
2017-Dec-20 00:30N 25°42' W 080°07'2 4.6
2017-Dec-20 00:00N 25°44' W 080°06'2 4.4
2017-Dec-19 23:30N 25°46' W 080°05'2 4.7
2017-Dec-19 23:00N 25°48' W 080°06'3 5.3
2017-Dec-19 22:28N 25°51' W 080°05'1 1.7
2017-Dec-19 22:00N 25°52' W 080°06'3 5.4
2017-Dec-19 21:30N 25°55' W 080°05'2 4.8
2017-Dec-19 21:00N 25°57' W 080°05'2 4.1
2017-Dec-19 20:30N 25°59' W 080°04'2 3.9
2017-Dec-19 20:00N 26°01' W 080°04'2 3.8
2017-Dec-19 19:30N 26°03' W 080°04'2 4.3
2017-Dec-19 19:00N 26°05' W 080°04'1 1.0
2017-Dec-19 18:26N 26°05' W 080°04'2 3.8
2017-Dec-19 17:59N 26°07' W 080°04'3 7.0
2017-Dec-19 17:30N 26°10' W 080°04'5 7.3
2017-Dec-19 16:52N 26°15' W 080°04'23 6.3
2017-Dec-19 13:11N 26°38' W 080°01'1 6.0
2017-Dec-19 12:59N 26°39' W 080°01'3 5.4
2017-Dec-19 12:30N 26°41' W 079°60'2 4.9
2017-Dec-19 12:00N 26°44' W 079°60'3 5.2
2017-Dec-19 11:30N 26°46' W 080°01'2 3.0
2017-Dec-19 11:00N 26°46' W 080°03'0 0.6
2017-Dec-19 10:30N 26°46' W 080°03'8 0.5
2017-Dec-18 17:28N 26°54' W 080°05'3 5.6
2017-Dec-18 17:00N 26°56' W 080°05'2 4.3
2017-Dec-18 16:30N 26°58' W 080°05'  

Dump ship's entire track history